sensor_id;sensor_type;location;lat;lon;timestamp;temperature;humidity
8463;DHT22;4268;52.506;13.462;2022-09-03T00:01:24;14.50;87.40
8463;DHT22;4268;52.506;13.462;2022-09-03T00:03:56;14.50;87.60
8463;DHT22;4268;52.506;13.462;2022-09-03T00:06:41;14.50;87.80
8463;DHT22;4268;52.506;13.462;2022-09-03T00:09:23;14.50;87.80
8463;DHT22;4268;52.506;13.462;2022-09-03T00:11:57;14.50;88.00
8463;DHT22;4268;52.506;13.462;2022-09-03T00:14:31;14.40;88.30
8463;DHT22;4268;52.506;13.462;2022-09-03T00:17:03;14.40;88.40
8463;DHT22;4268;52.506;13.462;2022-09-03T00:19:38;14.30;88.70
8463;DHT22;4268;52.506;13.462;2022-09-03T00:22:09;14.30;88.80
8463;DHT22;4268;52.506;13.462;2022-09-03T00:24:38;14.30;88.80
8463;DHT22;4268;52.506;13.462;2022-09-03T00:27:13;14.30;89.10
8463;DHT22;4268;52.506;13.462;2022-09-03T00:29:49;14.20;89.20
8463;DHT22;4268;52.506;13.462;2022-09-03T00:32:21;14.30;89.50
8463;DHT22;4268;52.506;13.462;2022-09-03T00:34:56;14.20;89.70
8463;DHT22;4268;52.506;13.462;2022-09-03T00:37:22;14.20;89.70
8463;DHT22;4268;52.506;13.462;2022-09-03T00:39:48;14.10;89.70
8463;DHT22;4268;52.506;13.462;2022-09-03T00:42:39;14.10;90.00
8463;DHT22;4268;52.506;13.462;2022-09-03T00:45:22;14.10;90.10
8463;DHT22;4268;52.506;13.462;2022-09-03T00:48:10;14.10;90.00
8463;DHT22;4268;52.506;13.462;2022-09-03T00:56:12;14.10;90.30
8463;DHT22;4268;52.506;13.462;2022-09-03T00:59:13;14.00;90.20
8463;DHT22;4268;52.506;13.462;2022-09-03T01:01:57;14.00;90.30
8463;DHT22;4268;52.506;13.462;2022-09-03T01:04:34;13.90;90.30
8463;DHT22;4268;52.506;13.462;2022-09-03T01:07:30;14.00;90.40
8463;DHT22;4268;52.506;13.462;2022-09-03T01:10:21;13.90;90.40
8463;DHT22;4268;52.506;13.462;2022-09-03T01:13:13;13.90;90.50
8463;DHT22;4268;52.506;13.462;2022-09-03T01:16:05;13.90;90.50
8463;DHT22;4268;52.506;13.462;2022-09-03T01:18:41;13.90;90.60
8463;DHT22;4268;52.506;13.462;2022-09-03T01:21:35;13.80;90.60
8463;DHT22;4268;52.506;13.462;2022-09-03T01:25:16;13.80;90.70
8463;DHT22;4268;52.506;13.462;2022-09-03T01:30:18;13.90;90.50
8463;DHT22;4268;52.506;13.462;2022-09-03T01:32:58;13.80;90.50
8463;DHT22;4268;52.506;13.462;2022-09-03T01:35:32;13.90;90.70
8463;DHT22;4268;52.506;13.462;2022-09-03T01:41:10;13.80;90.70
8463;DHT22;4268;52.506;13.462;2022-09-03T01:44:27;13.80;90.70
8463;DHT22;4268;52.506;13.462;2022-09-03T01:50:22;13.80;90.80
8463;DHT22;4268;52.506;13.462;2022-09-03T01:53:22;13.70;90.90
8463;DHT22;4268;52.506;13.462;2022-09-03T01:58:31;13.70;91.00
8463;DHT22;4268;52.506;13.462;2022-09-03T02:01:04;13.70;91.10
8463;DHT22;4268;52.506;13.462;2022-09-03T02:03:37;13.60;91.10
8463;DHT22;4268;52.506;13.462;2022-09-03T02:06:03;13.60;91.10
8463;DHT22;4268;52.506;13.462;2022-09-03T02:08:30;13.60;91.30
8463;DHT22;4268;52.506;13.462;2022-09-03T02:10:57;13.50;91.40
8463;DHT22;4268;52.506;13.462;2022-09-03T02:13:37;13.50;91.40
8463;DHT22;4268;52.506;13.462;2022-09-03T02:16:23;13.50;91.60
8463;DHT22;4268;52.506;13.462;2022-09-03T02:19:01;13.50;91.70
8463;DHT22;4268;52.506;13.462;2022-09-03T02:21:33;13.50;91.80
8463;DHT22;4268;52.506;13.462;2022-09-03T02:23:59;13.40;91.70
8463;DHT22;4268;52.506;13.462;2022-09-03T02:26:25;13.40;91.70
8463;DHT22;4268;52.506;13.462;2022-09-03T02:28:52;13.30;91.80
8463;DHT22;4268;52.506;13.462;2022-09-03T02:31:18;13.40;91.70
8463;DHT22;4268;52.506;13.462;2022-09-03T02:33:46;13.30;92.00
8463;DHT22;4268;52.506;13.462;2022-09-03T02:36:16;13.30;92.00
8463;DHT22;4268;52.506;13.462;2022-09-03T02:38:44;13.30;92.10
8463;DHT22;4268;52.506;13.462;2022-09-03T02:41:10;13.20;92.50
8463;DHT22;4268;52.506;13.462;2022-09-03T02:44:15;13.20;92.20
8463;DHT22;4268;52.506;13.462;2022-09-03T02:46:53;13.20;92.30
8463;DHT22;4268;52.506;13.462;2022-09-03T02:49:21;13.30;92.20
8463;DHT22;4268;52.506;13.462;2022-09-03T02:51:46;13.20;92.20
8463;DHT22;4268;52.506;13.462;2022-09-03T02:54:12;13.10;92.60
8463;DHT22;4268;52.506;13.462;2022-09-03T02:56:38;13.20;92.30
8463;DHT22;4268;52.506;13.462;2022-09-03T02:59:05;13.10;92.20
8463;DHT22;4268;52.506;13.462;2022-09-03T03:01:31;13.20;92.40
8463;DHT22;4268;52.506;13.462;2022-09-03T03:03:56;13.20;92.30
8463;DHT22;4268;52.506;13.462;2022-09-03T03:06:22;13.10;92.30
8463;DHT22;4268;52.506;13.462;2022-09-03T03:08:48;13.10;92.30
8463;DHT22;4268;52.506;13.462;2022-09-03T03:11:15;13.10;92.30
8463;DHT22;4268;52.506;13.462;2022-09-03T03:13:43;13.10;92.30
8463;DHT22;4268;52.506;13.462;2022-09-03T03:16:09;13.10;92.40
8463;DHT22;4268;52.506;13.462;2022-09-03T03:18:35;13.10;92.40
8463;DHT22;4268;52.506;13.462;2022-09-03T03:21:11;13.10;92.50
8463;DHT22;4268;52.506;13.462;2022-09-03T03:23:38;15.20;93.60
8463;DHT22;4268;52.506;13.462;2022-09-03T03:26:06;13.00;92.50
8463;DHT22;4268;52.506;13.462;2022-09-03T03:28:32;13.00;92.60
8463;DHT22;4268;52.506;13.462;2022-09-03T03:31:05;13.00;92.70
8463;DHT22;4268;52.506;13.462;2022-09-03T03:33:31;13.00;92.70
8463;DHT22;4268;52.506;13.462;2022-09-03T03:35:57;13.00;92.70
8463;DHT22;4268;52.506;13.462;2022-09-03T03:38:23;12.70;92.60
8463;DHT22;4268;52.506;13.462;2022-09-03T03:40:48;13.20;92.90
8463;DHT22;4268;52.506;13.462;2022-09-03T03:43:14;12.90;92.80
8463;DHT22;4268;52.506;13.462;2022-09-03T03:48:10;12.90;92.90
8463;DHT22;4268;52.506;13.462;2022-09-03T03:50:36;12.40;92.70
8463;DHT22;4268;52.506;13.462;2022-09-03T03:53:02;12.90;93.00
8463;DHT22;4268;52.506;13.462;2022-09-03T03:55:27;12.90;92.90
8463;DHT22;4268;52.506;13.462;2022-09-03T03:57:53;13.00;93.00
8463;DHT22;4268;52.506;13.462;2022-09-03T04:00:18;13.00;92.90
8463;DHT22;4268;52.506;13.462;2022-09-03T04:02:44;13.00;92.90
8463;DHT22;4268;52.506;13.462;2022-09-03T04:05:09;13.00;92.80
8463;DHT22;4268;52.506;13.462;2022-09-03T04:07:35;13.10;92.90
8463;DHT22;4268;52.506;13.462;2022-09-03T04:10:00;13.10;92.90
8463;DHT22;4268;52.506;13.462;2022-09-03T04:12:26;13.10;92.90
8463;DHT22;4268;52.506;13.462;2022-09-03T04:14:52;13.00;92.90
8463;DHT22;4268;52.506;13.462;2022-09-03T04:17:17;13.00;93.10
8463;DHT22;4268;52.506;13.462;2022-09-03T04:19:43;13.00;93.20
8463;DHT22;4268;52.506;13.462;2022-09-03T04:22:10;12.90;93.30
8463;DHT22;4268;52.506;13.462;2022-09-03T04:24:36;12.90;93.40
8463;DHT22;4268;52.506;13.462;2022-09-03T04:27:01;12.90;93.50
8463;DHT22;4268;52.506;13.462;2022-09-03T04:29:27;12.80;93.60
8463;DHT22;4268;52.506;13.462;2022-09-03T04:31:55;12.90;93.70
8463;DHT22;4268;52.506;13.462;2022-09-03T04:34:39;12.60;93.60
8463;DHT22;4268;52.506;13.462;2022-09-03T04:37:04;12.90;93.90
8463;DHT22;4268;52.506;13.462;2022-09-03T04:39:29;12.80;94.00
8463;DHT22;4268;52.506;13.462;2022-09-03T04:41:55;12.80;94.10
8463;DHT22;4268;52.506;13.462;2022-09-03T04:44:21;12.80;94.30
8463;DHT22;4268;52.506;13.462;2022-09-03T04:46:46;12.80;94.40
8463;DHT22;4268;52.506;13.462;2022-09-03T04:49:12;12.80;94.60
8463;DHT22;4268;52.506;13.462;2022-09-03T04:51:38;12.90;94.60
8463;DHT22;4268;52.506;13.462;2022-09-03T04:54:03;12.90;94.70
8463;DHT22;4268;52.506;13.462;2022-09-03T04:56:31;12.90;94.90
8463;DHT22;4268;52.506;13.462;2022-09-03T04:59:02;12.90;95.10
8463;DHT22;4268;52.506;13.462;2022-09-03T05:01:30;12.90;95.20
8463;DHT22;4268;52.506;13.462;2022-09-03T05:03:57;12.90;95.30
8463;DHT22;4268;52.506;13.462;2022-09-03T05:06:23;13.00;95.50
8463;DHT22;4268;52.506;13.462;2022-09-03T05:08:50;13.00;95.60
8463;DHT22;4268;52.506;13.462;2022-09-03T05:11:17;12.90;95.90
8463;DHT22;4268;52.506;13.462;2022-09-03T05:13:47;12.90;95.90
8463;DHT22;4268;52.506;13.462;2022-09-03T05:16:13;13.00;96.10
8463;DHT22;4268;52.506;13.462;2022-09-03T05:18:39;13.00;96.30
8463;DHT22;4268;52.506;13.462;2022-09-03T05:21:11;12.90;96.40
8463;DHT22;4268;52.506;13.462;2022-09-03T05:23:42;13.00;96.60
8463;DHT22;4268;52.506;13.462;2022-09-03T05:26:10;13.00;96.70
8463;DHT22;4268;52.506;13.462;2022-09-03T05:28:38;13.00;96.70
8463;DHT22;4268;52.506;13.462;2022-09-03T05:31:10;13.00;96.90
8463;DHT22;4268;52.506;13.462;2022-09-03T05:33:37;13.00;97.00
8463;DHT22;4268;52.506;13.462;2022-09-03T05:36:08;13.10;97.30
8463;DHT22;4268;52.506;13.462;2022-09-03T05:38:35;13.10;97.20
8463;DHT22;4268;52.506;13.462;2022-09-03T05:41:03;13.20;97.30
8463;DHT22;4268;52.506;13.462;2022-09-03T05:43:30;13.20;97.40
8463;DHT22;4268;52.506;13.462;2022-09-03T05:46:10;13.20;97.80
8463;DHT22;4268;52.506;13.462;2022-09-03T05:48:38;13.20;97.50
8463;DHT22;4268;52.506;13.462;2022-09-03T05:51:14;13.20;97.60
8463;DHT22;4268;52.506;13.462;2022-09-03T05:53:42;13.10;97.90
8463;DHT22;4268;52.506;13.462;2022-09-03T05:56:11;13.20;98.00
8463;DHT22;4268;52.506;13.462;2022-09-03T05:58:38;13.20;98.10
8463;DHT22;4268;52.506;13.462;2022-09-03T06:03:39;13.40;98.00
8463;DHT22;4268;52.506;13.462;2022-09-03T06:06:05;13.50;98.20
8463;DHT22;4268;52.506;13.462;2022-09-03T06:08:31;13.70;97.90
8463;DHT22;4268;52.506;13.462;2022-09-03T06:10:58;14.00;97.60
8463;DHT22;4268;52.506;13.462;2022-09-03T06:13:24;14.10;97.30
8463;DHT22;4268;52.506;13.462;2022-09-03T06:15:49;14.10;97.10
8463;DHT22;4268;52.506;13.462;2022-09-03T06:18:15;14.10;97.10
8463;DHT22;4268;52.506;13.462;2022-09-03T06:20:40;14.30;97.40
8463;DHT22;4268;52.506;13.462;2022-09-03T06:23:06;14.30;96.80
8463;DHT22;4268;52.506;13.462;2022-09-03T06:25:31;14.60;96.70
8463;DHT22;4268;52.506;13.462;2022-09-03T06:27:57;14.90;96.10
8463;DHT22;4268;52.506;13.462;2022-09-03T06:30:23;15.50;95.30
8463;DHT22;4268;52.506;13.462;2022-09-03T06:32:51;15.60;95.00
8463;DHT22;4268;52.506;13.462;2022-09-03T06:35:16;16.30;94.70
8463;DHT22;4268;52.506;13.462;2022-09-03T06:37:42;17.10;92.90
8463;DHT22;4268;52.506;13.462;2022-09-03T06:40:09;18.90;91.40
8463;DHT22;4268;52.506;13.462;2022-09-03T06:42:41;20.00;85.90
8463;DHT22;4268;52.506;13.462;2022-09-03T06:45:10;20.40;83.30
8463;DHT22;4268;52.506;13.462;2022-09-03T06:47:35;20.40;82.20
8463;DHT22;4268;52.506;13.462;2022-09-03T06:50:01;20.10;83.50
8463;DHT22;4268;52.506;13.462;2022-09-03T06:52:28;20.90;81.10
8463;DHT22;4268;52.506;13.462;2022-09-03T06:54:54;21.10;80.70
8463;DHT22;4268;52.506;13.462;2022-09-03T06:57:19;22.40;78.10
8463;DHT22;4268;52.506;13.462;2022-09-03T06:59:45;24.00;73.60
8463;DHT22;4268;52.506;13.462;2022-09-03T07:02:10;25.00;69.30
8463;DHT22;4268;52.506;13.462;2022-09-03T07:04:36;25.00;69.20
8463;DHT22;4268;52.506;13.462;2022-09-03T07:07:02;25.60;68.40
8463;DHT22;4268;52.506;13.462;2022-09-03T07:09:27;26.80;65.00
8463;DHT22;4268;52.506;13.462;2022-09-03T07:11:53;27.70;61.70
8463;DHT22;4268;52.506;13.462;2022-09-03T07:14:21;28.60;58.70
8463;DHT22;4268;52.506;13.462;2022-09-03T07:16:49;28.20;58.00
8463;DHT22;4268;52.506;13.462;2022-09-03T07:19:15;26.80;59.40
8463;DHT22;4268;52.506;13.462;2022-09-03T07:21:42;25.70;62.30
8463;DHT22;4268;52.506;13.462;2022-09-03T07:24:08;24.90;64.70
8463;DHT22;4268;52.506;13.462;2022-09-03T07:26:37;25.20;63.70
8463;DHT22;4268;52.506;13.462;2022-09-03T07:29:05;24.10;64.10
8463;DHT22;4268;52.506;13.462;2022-09-03T07:31:34;22.00;68.00
8463;DHT22;4268;52.506;13.462;2022-09-03T07:34:05;20.40;72.10
8463;DHT22;4268;52.506;13.462;2022-09-03T07:36:36;19.30;75.70
8463;DHT22;4268;52.506;13.462;2022-09-03T07:39:09;18.80;78.60
8463;DHT22;4268;52.506;13.462;2022-09-03T07:41:36;18.50;80.40
8463;DHT22;4268;52.506;13.462;2022-09-03T07:44:02;18.20;81.20
8463;DHT22;4268;52.506;13.462;2022-09-03T07:46:31;18.00;82.20
8463;DHT22;4268;52.506;13.462;2022-09-03T07:48:59;18.00;83.40
8463;DHT22;4268;52.506;13.462;2022-09-03T07:51:28;17.90;83.80
8463;DHT22;4268;52.506;13.462;2022-09-03T07:53:57;18.00;83.40
8463;DHT22;4268;52.506;13.462;2022-09-03T07:56:24;17.80;84.00
8463;DHT22;4268;52.506;13.462;2022-09-03T07:58:50;17.70;84.50
8463;DHT22;4268;52.506;13.462;2022-09-03T08:01:18;18.70;84.30
8463;DHT22;4268;52.506;13.462;2022-09-03T08:03:46;19.50;82.20
8463;DHT22;4268;52.506;13.462;2022-09-03T08:06:13;20.80;80.10
8463;DHT22;4268;52.506;13.462;2022-09-03T08:08:39;22.20;75.70
8463;DHT22;4268;52.506;13.462;2022-09-03T08:11:16;22.80;73.00
8463;DHT22;4268;52.506;13.462;2022-09-03T08:13:47;21.90;71.40
8463;DHT22;4268;52.506;13.462;2022-09-03T08:16:15;21.20;73.60
8463;DHT22;4268;52.506;13.462;2022-09-03T08:18:41;20.80;74.90
8463;DHT22;4268;52.506;13.462;2022-09-03T08:21:09;20.50;75.40
8463;DHT22;4268;52.506;13.462;2022-09-03T08:23:39;20.30;76.70
8463;DHT22;4268;52.506;13.462;2022-09-03T08:26:05;20.20;77.90
8463;DHT22;4268;52.506;13.462;2022-09-03T08:28:31;20.20;77.50
8463;DHT22;4268;52.506;13.462;2022-09-03T08:31:05;20.20;77.70
8463;DHT22;4268;52.506;13.462;2022-09-03T08:33:31;20.10;77.80
8463;DHT22;4268;52.506;13.462;2022-09-03T08:36:16;20.10;78.40
8463;DHT22;4268;52.506;13.462;2022-09-03T08:38:43;19.90;77.70
8463;DHT22;4268;52.506;13.462;2022-09-03T08:46:42;19.20;79.60
8463;DHT22;4268;52.506;13.462;2022-09-03T08:49:11;19.10;79.40
8463;DHT22;4268;52.506;13.462;2022-09-03T08:51:37;19.00;79.60
8463;DHT22;4268;52.506;13.462;2022-09-03T08:54:06;18.80;80.70
8463;DHT22;4268;52.506;13.462;2022-09-03T08:56:36;18.50;80.30
8463;DHT22;4268;52.506;13.462;2022-09-03T08:59:04;18.40;80.80
8463;DHT22;4268;52.506;13.462;2022-09-03T09:09:16;18.40;81.40
8463;DHT22;4268;52.506;13.462;2022-09-03T09:14:44;18.60;81.30
8463;DHT22;4268;52.506;13.462;2022-09-03T09:20:20;18.80;80.50
8463;DHT22;4268;52.506;13.462;2022-09-03T09:22:56;18.90;79.40
8463;DHT22;4268;52.506;13.462;2022-09-03T09:25:24;19.00;79.20
8463;DHT22;4268;52.506;13.462;2022-09-03T09:28:03;19.00;79.60
8463;DHT22;4268;52.506;13.462;2022-09-03T09:30:35;19.10;79.30
8463;DHT22;4268;52.506;13.462;2022-09-03T09:33:01;19.20;79.40
8463;DHT22;4268;52.506;13.462;2022-09-03T09:35:27;19.30;79.50
8463;DHT22;4268;52.506;13.462;2022-09-03T09:37:57;19.40;79.70
8463;DHT22;4268;52.506;13.462;2022-09-03T09:40:36;19.50;79.10
8463;DHT22;4268;52.506;13.462;2022-09-03T09:43:14;19.60;78.90
8463;DHT22;4268;52.506;13.462;2022-09-03T09:45:50;19.70;77.70
8463;DHT22;4268;52.506;13.462;2022-09-03T09:48:25;19.70;76.30
8463;DHT22;4268;52.506;13.462;2022-09-03T09:51:11;19.80;75.30
8463;DHT22;4268;52.506;13.462;2022-09-03T09:53:37;19.80;75.30
8463;DHT22;4268;52.506;13.462;2022-09-03T09:56:04;19.90;74.80
8463;DHT22;4268;52.506;13.462;2022-09-03T09:58:31;19.80;73.60
8463;DHT22;4268;52.506;13.462;2022-09-03T10:01:20;20.30;74.30
8463;DHT22;4268;52.506;13.462;2022-09-03T10:03:55;19.80;74.40
8463;DHT22;4268;52.506;13.462;2022-09-03T10:06:23;19.90;74.70
8463;DHT22;4268;52.506;13.462;2022-09-03T10:09:13;19.80;73.50
8463;DHT22;4268;52.506;13.462;2022-09-03T10:11:43;20.20;73.50
8463;DHT22;4268;52.506;13.462;2022-09-03T10:14:16;20.20;76.00
8463;DHT22;4268;52.506;13.462;2022-09-03T10:16:46;20.30;74.60
8463;DHT22;4268;52.506;13.462;2022-09-03T10:19:26;20.40;74.00
8463;DHT22;4268;52.506;13.462;2022-09-03T10:22:09;20.50;71.10
8463;DHT22;4268;52.506;13.462;2022-09-03T10:24:59;20.60;70.10
8463;DHT22;4268;52.506;13.462;2022-09-03T10:27:26;20.80;69.40
8463;DHT22;4268;52.506;13.462;2022-09-03T10:29:54;20.90;69.10
8463;DHT22;4268;52.506;13.462;2022-09-03T10:35:22;20.90;68.90
8463;DHT22;4268;52.506;13.462;2022-09-03T10:37:54;21.00;68.20
8463;DHT22;4268;52.506;13.462;2022-09-03T10:40:41;21.10;67.40
8463;DHT22;4268;52.506;13.462;2022-09-03T10:43:24;21.10;67.10
8463;DHT22;4268;52.506;13.462;2022-09-03T10:51:33;21.00;67.40
8463;DHT22;4268;52.506;13.462;2022-09-03T10:57:18;20.80;68.50
8463;DHT22;4268;52.506;13.462;2022-09-03T11:00:03;20.80;68.60
8463;DHT22;4268;52.506;13.462;2022-09-03T11:03:33;21.10;68.90
8463;DHT22;4268;52.506;13.462;2022-09-03T11:05:47;21.30;67.50
8463;DHT22;4268;52.506;13.462;2022-09-03T11:08:28;21.40;67.90
8463;DHT22;4268;52.506;13.462;2022-09-03T11:10:59;21.70;67.70
8463;DHT22;4268;52.506;13.462;2022-09-03T11:16:20;22.20;65.20
8463;DHT22;4268;52.506;13.462;2022-09-03T11:21:29;22.50;64.10
8463;DHT22;4268;52.506;13.462;2022-09-03T11:24:16;22.10;64.70
8463;DHT22;4268;52.506;13.462;2022-09-03T11:26:43;22.10;64.90
8463;DHT22;4268;52.506;13.462;2022-09-03T11:29:20;21.90;64.10
8463;DHT22;4268;52.506;13.462;2022-09-03T11:31:58;22.00;64.10
8463;DHT22;4268;52.506;13.462;2022-09-03T11:36:51;21.90;64.70
8463;DHT22;4268;52.506;13.462;2022-09-03T11:39:35;22.00;64.20
8463;DHT22;4268;52.506;13.462;2022-09-03T11:42:08;22.20;63.90
8463;DHT22;4268;52.506;13.462;2022-09-03T11:44:36;22.20;63.60
8463;DHT22;4268;52.506;13.462;2022-09-03T11:47:13;22.10;62.80
8463;DHT22;4268;52.506;13.462;2022-09-03T11:49:51;21.90;63.40
8463;DHT22;4268;52.506;13.462;2022-09-03T11:52:29;21.80;63.50
8463;DHT22;4268;52.506;13.462;2022-09-03T11:54:56;21.50;63.70
8463;DHT22;4268;52.506;13.462;2022-09-03T11:57:27;21.40;64.00
8463;DHT22;4268;52.506;13.462;2022-09-03T11:59:54;21.40;63.70
8463;DHT22;4268;52.506;13.462;2022-09-03T12:02:33;21.60;63.80
8463;DHT22;4268;52.506;13.462;2022-09-03T12:08:34;21.80;63.20
8463;DHT22;4268;52.506;13.462;2022-09-03T12:14:11;22.10;60.50
8463;DHT22;4268;52.506;13.462;2022-09-03T12:17:07;22.20;61.00
8463;DHT22;4268;52.506;13.462;2022-09-03T12:19:49;22.30;60.30
8463;DHT22;4268;52.506;13.462;2022-09-03T12:22:17;22.20;60.60
8463;DHT22;4268;52.506;13.462;2022-09-03T12:24:43;22.30;60.30
8463;DHT22;4268;52.506;13.462;2022-09-03T12:27:23;22.40;59.30
8463;DHT22;4268;52.506;13.462;2022-09-03T12:29:56;22.50;59.30
8463;DHT22;4268;52.506;13.462;2022-09-03T12:32:33;22.40;59.30
8463;DHT22;4268;52.506;13.462;2022-09-03T12:35:17;22.50;59.30
8463;DHT22;4268;52.506;13.462;2022-09-03T12:37:44;22.40;59.10
8463;DHT22;4268;52.506;13.462;2022-09-03T12:40:24;22.50;59.00
8463;DHT22;4268;52.506;13.462;2022-09-03T12:42:51;22.40;59.10
8463;DHT22;4268;52.506;13.462;2022-09-03T12:45:25;22.40;58.80
8463;DHT22;4268;52.506;13.462;2022-09-03T12:47:52;22.70;58.70
8463;DHT22;4268;52.506;13.462;2022-09-03T12:50:22;22.70;58.00
8463;DHT22;4268;52.506;13.462;2022-09-03T12:52:58;22.60;58.60
8463;DHT22;4268;52.506;13.462;2022-09-03T12:58:16;22.60;58.60
8463;DHT22;4268;52.506;13.462;2022-09-03T13:01:06;22.40;58.90
8463;DHT22;4268;52.506;13.462;2022-09-03T13:03:44;22.30;59.00
8463;DHT22;4268;52.506;13.462;2022-09-03T13:06:17;22.20;60.00
8463;DHT22;4268;52.506;13.462;2022-09-03T13:09:00;22.00;59.80
8463;DHT22;4268;52.506;13.462;2022-09-03T13:11:27;21.90;59.70
8463;DHT22;4268;52.506;13.462;2022-09-03T13:13:59;21.90;59.90
8463;DHT22;4268;52.506;13.462;2022-09-03T13:16:51;22.10;60.60
8463;DHT22;4268;52.506;13.462;2022-09-03T13:22:26;22.00;59.10
8463;DHT22;4268;52.506;13.462;2022-09-03T13:27:41;22.40;59.50
8463;DHT22;4268;52.506;13.462;2022-09-03T13:30:16;22.40;59.70
8463;DHT22;4268;52.506;13.462;2022-09-03T13:33:01;22.50;59.10
8463;DHT22;4268;52.506;13.462;2022-09-03T13:36:08;22.70;59.20
8463;DHT22;4268;52.506;13.462;2022-09-03T13:39:12;22.90;59.10
8463;DHT22;4268;52.506;13.462;2022-09-03T13:41:53;23.00;59.00
8463;DHT22;4268;52.506;13.462;2022-09-03T13:47:14;23.10;58.60
8463;DHT22;4268;52.506;13.462;2022-09-03T13:49:46;23.20;58.30
8463;DHT22;4268;52.506;13.462;2022-09-03T13:52:38;23.30;58.50
8463;DHT22;4268;52.506;13.462;2022-09-03T13:58:10;23.10;57.90
8463;DHT22;4268;52.506;13.462;2022-09-03T14:00:49;23.00;58.80
8463;DHT22;4268;52.506;13.462;2022-09-03T14:06:40;23.10;57.60
8463;DHT22;4268;52.506;13.462;2022-09-03T14:12:20;23.10;57.70
8463;DHT22;4268;52.506;13.462;2022-09-03T14:15:00;23.00;58.00
8463;DHT22;4268;52.506;13.462;2022-09-03T14:18:07;23.00;57.20
8463;DHT22;4268;52.506;13.462;2022-09-03T14:20:48;23.00;56.70
8463;DHT22;4268;52.506;13.462;2022-09-03T14:23:43;22.80;57.50
8463;DHT22;4268;52.506;13.462;2022-09-03T14:27:20;22.80;58.00
8463;DHT22;4268;52.506;13.462;2022-09-03T14:32:17;22.50;58.20
8463;DHT22;4268;52.506;13.462;2022-09-03T14:38:04;22.40;58.50
8463;DHT22;4268;52.506;13.462;2022-09-03T14:40:44;22.50;58.60
8463;DHT22;4268;52.506;13.462;2022-09-03T14:46:13;22.70;58.70
8463;DHT22;4268;52.506;13.462;2022-09-03T14:51:33;22.70;57.70
8463;DHT22;4268;52.506;13.462;2022-09-03T14:54:06;22.60;57.80
8463;DHT22;4268;52.506;13.462;2022-09-03T15:05:32;21.90;59.30
8463;DHT22;4268;52.506;13.462;2022-09-03T15:10:49;21.80;59.80
8463;DHT22;4268;52.506;13.462;2022-09-03T15:13:35;21.70;60.00
8463;DHT22;4268;52.506;13.462;2022-09-03T15:19:07;22.10;60.50
8463;DHT22;4268;52.506;13.462;2022-09-03T15:27:11;22.30;59.40
8463;DHT22;4268;52.506;13.462;2022-09-03T15:29:47;22.40;58.90
8463;DHT22;4268;52.506;13.462;2022-09-03T15:32:36;22.30;59.00
8463;DHT22;4268;52.506;13.462;2022-09-03T15:35:09;21.80;58.60
8463;DHT22;4268;52.506;13.462;2022-09-03T15:37:46;22.10;57.90
8463;DHT22;4268;52.506;13.462;2022-09-03T15:42:42;22.00;59.20
8463;DHT22;4268;52.506;13.462;2022-09-03T15:45:20;22.80;60.00
8463;DHT22;4268;52.506;13.462;2022-09-03T15:47:54;22.10;58.90
8463;DHT22;4268;52.506;13.462;2022-09-03T15:50:29;21.60;59.00
8463;DHT22;4268;52.506;13.462;2022-09-03T15:53:29;22.10;59.60
8463;DHT22;4268;52.506;13.462;2022-09-03T15:59:24;22.30;59.00
8463;DHT22;4268;52.506;13.462;2022-09-03T16:01:57;22.80;59.50
8463;DHT22;4268;52.506;13.462;2022-09-03T16:04:39;21.40;58.60
8463;DHT22;4268;52.506;13.462;2022-09-03T16:15:26;21.80;60.20
8463;DHT22;4268;52.506;13.462;2022-09-03T16:18:02;21.80;60.20
8463;DHT22;4268;52.506;13.462;2022-09-03T16:21:02;21.60;60.20
8463;DHT22;4268;52.506;13.462;2022-09-03T16:26:06;21.00;60.60
8463;DHT22;4268;52.506;13.462;2022-09-03T16:28:41;21.30;61.10
8463;DHT22;4268;52.506;13.462;2022-09-03T16:31:27;21.60;61.70
8463;DHT22;4268;52.506;13.462;2022-09-03T16:36:51;21.30;61.90
8463;DHT22;4268;52.506;13.462;2022-09-03T16:45:29;21.30;61.90
8463;DHT22;4268;52.506;13.462;2022-09-03T16:48:10;21.30;62.10
8463;DHT22;4268;52.506;13.462;2022-09-03T16:53:52;21.10;61.40
8463;DHT22;4268;52.506;13.462;2022-09-03T16:56:53;21.10;61.90
8463;DHT22;4268;52.506;13.462;2022-09-03T16:59:58;21.00;62.40
8463;DHT22;4268;52.506;13.462;2022-09-03T17:08:40;20.80;63.10
8463;DHT22;4268;52.506;13.462;2022-09-03T17:14:07;20.80;63.40
8463;DHT22;4268;52.506;13.462;2022-09-03T17:16:40;21.00;63.80
8463;DHT22;4268;52.506;13.462;2022-09-03T17:19:16;20.70;63.60
8463;DHT22;4268;52.506;13.462;2022-09-03T17:22:19;20.30;63.50
8463;DHT22;4268;52.506;13.462;2022-09-03T17:24:53;20.70;63.90
8463;DHT22;4268;52.506;13.462;2022-09-03T17:30:41;20.70;64.00
8463;DHT22;4268;52.506;13.462;2022-09-03T17:33:36;20.40;64.10
8463;DHT22;4268;52.506;13.462;2022-09-03T17:36:30;20.60;64.60
8463;DHT22;4268;52.506;13.462;2022-09-03T17:39:24;21.20;65.50
8463;DHT22;4268;52.506;13.462;2022-09-03T17:41:53;20.40;64.70
8463;DHT22;4268;52.506;13.462;2022-09-03T17:44:29;20.40;64.80
8463;DHT22;4268;52.506;13.462;2022-09-03T17:47:16;20.40;65.00
8463;DHT22;4268;52.506;13.462;2022-09-03T17:49:55;20.70;65.70
8463;DHT22;4268;52.506;13.462;2022-09-03T17:55:07;20.20;65.80
8463;DHT22;4268;52.506;13.462;2022-09-03T17:57:49;20.10;65.90
8463;DHT22;4268;52.506;13.462;2022-09-03T18:00:23;20.10;66.10
8463;DHT22;4268;52.506;13.462;2022-09-03T18:03:04;19.90;66.20
8463;DHT22;4268;52.506;13.462;2022-09-03T18:05:48;19.90;66.70
8463;DHT22;4268;52.506;13.462;2022-09-03T18:11:30;19.80;67.00
8463;DHT22;4268;52.506;13.462;2022-09-03T18:20:07;19.80;67.00
8463;DHT22;4268;52.506;13.462;2022-09-03T18:23:07;19.70;67.00
8463;DHT22;4268;52.506;13.462;2022-09-03T18:26:06;19.70;67.20
8463;DHT22;4268;52.506;13.462;2022-09-03T18:29:02;19.60;67.20
8463;DHT22;4268;52.506;13.462;2022-09-03T18:31:47;19.60;67.30
8463;DHT22;4268;52.506;13.462;2022-09-03T18:34:37;19.60;67.30
8463;DHT22;4268;52.506;13.462;2022-09-03T18:37:24;19.60;67.30
8463;DHT22;4268;52.506;13.462;2022-09-03T18:40:19;19.80;67.80
8463;DHT22;4268;52.506;13.462;2022-09-03T18:43:31;19.60;67.60
8463;DHT22;4268;52.506;13.462;2022-09-03T18:46:27;19.60;67.70
8463;DHT22;4268;52.506;13.462;2022-09-03T18:49:40;18.90;67.30
8463;DHT22;4268;52.506;13.462;2022-09-03T18:52:39;19.50;67.60
8463;DHT22;4268;52.506;13.462;2022-09-03T18:55:38;19.50;67.80
8463;DHT22;4268;52.506;13.462;2022-09-03T18:58:41;19.40;67.90
8463;DHT22;4268;52.506;13.462;2022-09-03T19:01:35;19.60;68.30
8463;DHT22;4268;52.506;13.462;2022-09-03T19:08:05;19.40;68.40
8463;DHT22;4268;52.506;13.462;2022-09-03T19:11:20;19.30;68.80
8463;DHT22;4268;52.506;13.462;2022-09-03T19:14:23;19.30;68.70
8463;DHT22;4268;52.506;13.462;2022-09-03T19:17:19;19.30;68.80
8463;DHT22;4268;52.506;13.462;2022-09-03T19:20:17;19.40;68.80
8463;DHT22;4268;52.506;13.462;2022-09-03T19:23:03;19.30;68.80
8463;DHT22;4268;52.506;13.462;2022-09-03T19:25:47;19.20;68.60
8463;DHT22;4268;52.506;13.462;2022-09-03T19:28:38;19.20;68.60
8463;DHT22;4268;52.506;13.462;2022-09-03T19:31:46;19.20;68.60